Time;durP1;ratioP1;P1;durP2;ratioP2;P2;SDS_P1;SDS_P2;PMS_P1;PMS_P2;Temp;Humidity;BMP_temperature;BMP_pressure;BME280_temperature;BME280_humidity;BME280_pressure;Samples;Min_cycle;Max_cycle;Signal;HPM_P1;HPM_P2
2023/11/25 00:04:54;;;;;;;1.00;0.55;;;6.50;99.90;;;;;;10079130;28;20051;-72
2023/11/25 00:09:45;;;;;;;3.45;0.73;;;6.50;99.90;;;;;;10096004;28;20031;-69
2023/11/25 00:14:36;;;;;;;3.72;1.00;;;6.40;99.90;;;;;;10095236;28;20147;-75
2023/11/25 00:19:26;;;;;;;0.82;0.70;;;6.40;99.90;;;;;;10093589;28;20506;-71
2023/11/25 00:24:17;;;;;;;4.47;0.77;;;6.40;99.90;;;;;;10071371;28;20048;-69
2023/11/25 00:29:08;;;;;;;0.68;0.45;;;6.40;99.90;;;;;;10095865;28;20041;-69
2023/11/25 00:34:02;;;;;;;1.25;0.57;;;6.40;99.90;;;;;;10089812;28;20099;-73
2023/11/25 00:38:53;;;;;;;1.95;0.68;;;6.50;99.90;;;;;;10087695;28;21379;-70
2023/11/25 00:43:44;;;;;;;2.58;1.20;;;6.40;99.90;;;;;;10091998;28;20212;-71
2023/11/25 00:48:35;;;;;;;5.15;0.82;;;6.50;99.90;;;;;;10090459;28;20043;-69
2023/11/25 00:53:26;;;;;;;2.42;0.60;;;6.40;99.90;;;;;;10092565;28;20029;-72
2023/11/25 00:58:16;;;;;;;2.10;0.68;;;6.40;99.90;;;;;;10090141;28;20021;-69
2023/11/25 01:03:07;;;;;;;3.58;0.60;;;6.40;99.90;;;;;;10094366;28;20044;-72
2023/11/25 01:07:58;;;;;;;1.17;0.90;;;6.40;99.90;;;;;;10094695;28;20150;-72
2023/11/25 01:12:48;;;;;;;3.63;0.85;;;6.30;99.90;;;;;;10093430;28;20045;-70
2023/11/25 01:17:39;;;;;;;0.65;0.63;;;6.40;99.90;;;;;;10094167;28;20052;-70
2023/11/25 01:22:30;;;;;;;1.13;0.50;;;6.40;99.90;;;;;;10094525;28;20039;-70
2023/11/25 01:27:23;;;;;;;1.73;0.85;;;6.30;99.90;;;;;;10094077;28;20128;-68
2023/11/25 01:32:13;;;;;;;1.10;0.85;;;6.30;99.90;;;;;;10094196;28;20048;-73
2023/11/25 01:37:05;;;;;;;2.35;0.60;;;6.20;99.90;;;;;;10093813;28;20041;-71
2023/11/25 01:41:55;;;;;;;1.50;0.43;;;6.10;99.90;;;;;;10093887;28;20028;-72
2023/11/25 01:46:47;;;;;;;1.33;0.52;;;6.00;99.90;;;;;;10092754;28;20107;-76
2023/11/25 01:51:40;;;;;;;0.75;0.60;;;6.00;99.90;;;;;;10093302;28;20029;-71
2023/11/25 01:56:33;;;;;;;2.25;0.57;;;6.00;99.90;;;;;;10093573;28;20032;-74
2023/11/25 02:01:29;;;;;;;2.25;0.60;;;6.00;99.90;;;;;;10094746;28;20454;-75
2023/11/25 02:06:19;;;;;;;;;;;6.00;99.90;;;;;;10092874;28;20033;-75
2023/11/25 02:11:10;;;;;;;3.38;0.77;;;5.90;99.90;;;;;;10092037;28;20382;-71
2023/11/25 02:16:01;;;;;;;1.90;0.93;;;5.90;99.90;;;;;;10094008;28;20091;-74
2023/11/25 02:20:51;;;;;;;0.98;0.50;;;6.10;99.90;;;;;;10100215;28;20028;-70
2023/11/25 02:25:50;;;;;;;0.88;0.50;;;6.10;99.90;;;;;;10102272;28;20049;-69
2023/11/25 02:30:42;;;;;;;1.92;0.45;;;6.00;99.90;;;;;;10101030;28;20606;-68
2023/11/25 02:35:33;;;;;;;0.88;0.50;;;6.00;99.90;;;;;;10097339;28;20427;-69
2023/11/25 02:40:24;;;;;;;0.68;0.68;;;6.00;99.90;;;;;;10097572;28;20048;-69
2023/11/25 02:45:19;;;;;;;0.90;0.60;;;6.00;99.90;;;;;;10097590;28;20037;-69
2023/11/25 02:50:10;;;;;;;1.23;0.50;;;6.00;99.90;;;;;;10096636;28;20039;-69
2023/11/25 02:55:04;;;;;;;0.60;0.45;;;5.90;99.90;;;;;;10097611;28;20025;-69
2023/11/25 02:59:56;;;;;;;1.17;0.50;;;6.00;99.90;;;;;;10098245;28;20027;-69
2023/11/25 03:04:49;;;;;;;1.02;0.40;;;5.90;99.90;;;;;;10098351;28;20037;-69
2023/11/25 03:09:42;;;;;;;2.45;0.30;;;5.90;99.90;;;;;;10099037;28;20017;-69
2023/11/25 03:14:32;;;;;;;1.63;0.50;;;5.90;99.90;;;;;;10097178;28;20021;-69
2023/11/25 03:19:23;;;;;;;2.58;1.23;;;5.90;99.90;;;;;;10098055;28;20037;-69
2023/11/25 03:24:13;;;;;;;2.60;0.90;;;5.80;99.90;;;;;;10099196;28;20457;-70
2023/11/25 03:29:06;;;;;;;0.80;0.50;;;5.70;99.90;;;;;;10096833;28;20037;-69
2023/11/25 03:33:56;;;;;;;1.77;0.68;;;5.80;99.90;;;;;;10098566;28;20083;-71
2023/11/25 03:38:47;;;;;;;4.43;0.98;;;5.80;99.90;;;;;;10098073;28;20056;-71
2023/11/25 03:43:38;;;;;;;1.80;0.98;;;5.90;99.90;;;;;;10096318;28;20041;-69
2023/11/25 03:48:32;;;;;;;1.90;0.70;;;5.90;99.90;;;;;;10096961;28;20049;-74
2023/11/25 03:53:23;;;;;;;1.02;0.73;;;5.70;99.90;;;;;;10096182;28;20064;-69
2023/11/25 03:58:14;;;;;;;0.93;0.68;;;5.60;99.90;;;;;;10094104;28;20135;-68
2023/11/25 04:03:04;;;;;;;4.13;0.60;;;5.70;99.90;;;;;;10086122;28;20073;-68
2023/11/25 04:07:55;;;;;;;2.05;0.68;;;5.60;99.90;;;;;;10089819;28;20117;-68
2023/11/25 04:12:47;;;;;;;1.15;0.55;;;5.60;99.90;;;;;;10073284;28;20029;-68
2023/11/25 04:17:41;;;;;;;1.77;0.50;;;5.70;99.90;;;;;;10095930;28;20033;-69
2023/11/25 04:22:32;;;;;;;1.58;0.82;;;5.50;99.90;;;;;;10088093;28;20033;-70
2023/11/25 04:27:26;;;;;;;1.35;0.55;;;5.50;99.90;;;;;;10096913;28;20045;-70
2023/11/25 04:32:16;;;;;;;1.52;0.60;;;5.60;99.90;;;;;;10094973;28;20040;-70
2023/11/25 04:37:07;;;;;;;2.25;0.95;;;5.60;99.90;;;;;;10092484;28;20072;-68
2023/11/25 04:41:58;;;;;;;1.70;0.77;;;5.60;99.90;;;;;;10094847;28;20463;-70
2023/11/25 04:46:48;;;;;;;1.90;0.63;;;5.60;99.90;;;;;;10094539;28;20578;-70
2023/11/25 04:51:39;;;;;;;1.30;0.70;;;5.60;99.90;;;;;;10094783;28;20029;-73
2023/11/25 04:56:31;;;;;;;2.58;1.10;;;5.60;99.90;;;;;;10094727;28;20075;-69
2023/11/25 05:01:22;;;;;;;1.83;0.40;;;5.60;99.90;;;;;;10091488;28;20044;-71
2023/11/25 05:06:13;;;;;;;1.45;0.68;;;5.70;99.90;;;;;;10091606;28;20049;-69
2023/11/25 05:11:04;;;;;;;1.73;1.02;;;5.50;99.90;;;;;;10092769;28;20025;-69
2023/11/25 05:15:54;;;;;;;1.45;1.02;;;5.40;99.90;;;;;;10093701;28;20039;-69
2023/11/25 05:20:45;;;;;;;1.90;0.90;;;5.40;99.90;;;;;;10093788;28;20643;-69
2023/11/25 05:25:36;;;;;;;1.58;0.90;;;5.40;99.90;;;;;;10095780;28;20033;-69
2023/11/25 05:30:26;;;;;;;1.75;0.77;;;5.40;99.90;;;;;;10075725;28;20118;-71
2023/11/25 05:35:17;;;;;;;4.10;1.00;;;5.40;99.90;;;;;;10092223;28;20690;-70
2023/11/25 05:40:11;;;;;;;7.35;1.17;;;5.40;99.90;;;;;;10094241;28;20025;-69
2023/11/25 05:45:04;;;;;;;3.17;1.08;;;5.50;99.90;;;;;;10093789;28;20039;-68
2023/11/25 05:49:54;;;;;;;1.48;0.85;;;5.50;99.90;;;;;;10094298;28;20467;-69
2023/11/25 05:54:45;;;;;;;1.33;0.88;;;5.50;99.90;;;;;;10099176;28;20044;-68
2023/11/25 05:59:36;;;;;;;2.47;0.60;;;5.50;99.90;;;;;;10099195;28;20548;-71
2023/11/25 06:04:26;;;;;;;2.88;1.10;;;5.40;99.90;;;;;;10104660;28;20072;-73
2023/11/25 06:09:17;;;;;;;4.43;1.20;;;5.40;99.90;;;;;;10100995;28;20703;-72
2023/11/25 06:14:10;;;;;;;4.68;0.77;;;5.30;99.90;;;;;;10099581;28;20449;-72
2023/11/25 06:19:00;;;;;;;1.83;0.85;;;5.40;99.90;;;;;;10094363;28;20047;-71
2023/11/25 06:23:51;;;;;;;3.33;1.77;;;5.40;99.90;;;;;;10096362;28;20047;-71
2023/11/25 06:28:47;;;;;;;1.45;0.80;;;5.50;99.90;;;;;;10101252;28;20036;-73
2023/11/25 06:33:39;;;;;;;3.80;0.75;;;5.40;99.90;;;;;;10098868;28;20124;-69
2023/11/25 06:38:29;;;;;;;7.95;1.48;;;5.20;99.90;;;;;;10099592;28;20491;-69
2023/11/25 06:43:20;;;;;;;3.47;1.15;;;5.20;99.90;;;;;;10095480;28;20040;-71
2023/11/25 06:48:11;;;;;;;3.20;1.45;;;5.20;99.90;;;;;;10100355;28;20037;-70
2023/11/25 06:53:03;;;;;;;2.38;1.45;;;5.30;99.90;;;;;;10099900;28;20029;-71
2023/11/25 06:57:54;;;;;;;3.03;1.60;;;5.20;99.90;;;;;;10098931;28;20033;-70
2023/11/25 07:02:44;;;;;;;4.95;1.60;;;5.30;99.90;;;;;;10098235;28;20041;-70
2023/11/25 07:07:36;;;;;;;5.80;1.17;;;5.40;99.90;;;;;;10098066;28;20075;-70
2023/11/25 07:12:27;;;;;;;3.30;0.82;;;5.40;99.90;;;;;;10097176;28;20039;-71
2023/11/25 07:17:18;;;;;;;1.42;1.33;;;5.50;99.90;;;;;;10098135;28;20390;-70
2023/11/25 07:22:09;;;;;;;3.03;2.55;;;5.40;99.90;;;;;;10096991;28;20025;-74
2023/11/25 07:27:04;;;;;;;1.55;0.82;;;5.40;99.90;;;;;;10098057;28;20045;-71
2023/11/25 07:31:55;;;;;;;5.75;1.10;;;5.40;99.90;;;;;;10097465;28;20024;-74
2023/11/25 07:36:46;;;;;;;3.80;1.35;;;5.40;99.90;;;;;;10095264;28;20052;-74
2023/11/25 07:41:37;;;;;;;1.90;1.00;;;5.40;99.90;;;;;;10092645;28;20024;-75
2023/11/25 07:46:27;;;;;;;2.28;1.60;;;5.40;99.90;;;;;;10097808;28;20037;-73
2023/11/25 07:51:18;;;;;;;2.72;1.15;;;5.40;99.90;;;;;;10096486;28;20048;-73
2023/11/25 07:56:10;;;;;;;4.68;1.33;;;5.60;99.90;;;;;;10094147;28;20036;-70
2023/11/25 08:01:00;;;;;;;3.47;1.52;;;5.50;99.90;;;;;;10094838;28;20125;-72
2023/11/25 08:05:52;;;;;;;2.25;1.20;;;5.50;99.90;;;;;;10095978;28;20093;-72
2023/11/25 08:10:43;;;;;;;5.00;1.52;;;5.50;99.90;;;;;;10095501;28;20550;-76
2023/11/25 08:15:33;;;;;;;3.78;1.80;;;5.50;99.90;;;;;;10094000;28;20040;-75
2023/11/25 08:20:24;;;;;;;5.10;1.75;;;5.60;99.90;;;;;;10092548;28;20111;-73
2023/11/25 08:25:15;;;;;;;4.20;1.40;;;5.70;99.90;;;;;;10097040;28;20131;-71
2023/11/25 08:30:08;;;;;;;2.75;1.27;;;5.60;99.90;;;;;;10095044;28;20029;-73
2023/11/25 08:34:59;;;;;;;3.20;1.50;;;5.60;99.90;;;;;;10096312;28;20033;-70
2023/11/25 08:39:50;;;;;;;7.25;1.35;;;5.60;99.90;;;;;;10093632;28;20040;-71
2023/11/25 08:44:45;;;;;;;2.50;1.15;;;5.60;99.90;;;;;;10094488;28;20185;-71
2023/11/25 08:49:36;;;;;;;6.63;1.50;;;5.80;99.90;;;;;;10092612;28;20040;-68
2023/11/25 08:54:35;;;;;;;4.85;1.50;;;5.70;99.90;;;;;;10093434;28;20112;-73
2023/11/25 08:59:26;;;;;;;3.97;1.85;;;5.80;99.90;;;;;;10102654;28;20044;-72
2023/11/25 09:04:19;;;;;;;2.95;1.38;;;5.80;99.90;;;;;;10089711;28;20574;-68
2023/11/25 09:09:10;;;;;;;4.30;1.58;;;5.90;99.90;;;;;;10089241;28;20095;-71
2023/11/25 09:14:04;;;;;;;6.15;1.02;;;5.90;99.90;;;;;;10092245;28;20024;-68
2023/11/25 09:18:54;;;;;;;1.08;0.65;;;6.00;99.90;;;;;;10092963;28;20541;-68
2023/11/25 09:23:45;;;;;;;6.15;1.02;;;6.00;99.90;;;;;;10095521;28;20037;-69
2023/11/25 09:28:36;;;;;;;4.35;1.30;;;6.10;99.90;;;;;;10102710;28;20390;-69
2023/11/25 09:33:27;;;;;;;2.85;1.75;;;6.10;99.90;;;;;;10101770;28;20110;-70
2023/11/25 09:38:17;;;;;;;4.97;1.45;;;6.20;99.90;;;;;;10100304;28;20594;-69
2023/11/25 09:43:09;;;;;;;6.60;1.50;;;6.30;99.90;;;;;;10101890;28;20086;-70
2023/11/25 09:47:59;;;;;;;4.40;1.60;;;6.30;99.90;;;;;;10084707;28;20033;-70
2023/11/25 09:52:56;;;;;;;7.25;1.45;;;6.30;99.90;;;;;;10102760;28;20039;-69
2023/11/25 09:57:52;;;;;;;2.00;0.88;;;6.40;99.90;;;;;;10099529;28;20032;-70
2023/11/25 10:02:57;;;;;;;4.43;1.05;;;6.30;99.90;;;;;;10102907;28;20051;-71
2023/11/25 10:07:56;;;;;;;5.80;1.25;;;6.30;99.90;;;;;;10098120;28;20761;-72
2023/11/25 10:12:47;;;;;;;7.55;1.70;;;6.40;99.90;;;;;;10084427;28;20063;-70
2023/11/25 10:17:38;;;;;;;3.78;1.27;;;6.30;99.90;;;;;;10081997;28;20707;-72
2023/11/25 10:22:28;;;;;;;4.63;1.52;;;6.30;99.90;;;;;;10099452;28;20025;-72
2023/11/25 10:27:22;;;;;;;3.00;1.85;;;6.30;99.90;;;;;;10099933;28;20033;-70
2023/11/25 10:32:14;;;;;;;3.92;1.17;;;6.30;99.90;;;;;;10082459;28;20120;-70
2023/11/25 10:37:05;;;;;;;2.67;1.08;;;6.30;99.90;;;;;;10098622;28;20130;-73
2023/11/25 10:41:57;;;;;;;3.88;1.92;;;6.30;99.90;;;;;;10099440;28;20048;-70
2023/11/25 10:46:48;;;;;;;3.30;1.08;;;6.40;99.90;;;;;;10099605;28;20036;-69
2023/11/25 10:51:39;;;;;;;3.55;1.50;;;6.30;99.90;;;;;;10098096;28;20032;-70
2023/11/25 10:56:32;;;;;;;5.15;1.75;;;6.30;99.90;;;;;;10099455;28;20039;-69
2023/11/25 11:01:25;;;;;;;4.68;2.53;;;6.30;99.90;;;;;;10096464;28;20348;-71
2023/11/25 11:06:23;;;;;;;4.63;1.30;;;6.30;99.90;;;;;;10099583;28;20041;-75
2023/11/25 11:11:18;;;;;;;1.73;1.02;;;6.50;99.90;;;;;;10097969;28;20029;-71
2023/11/25 11:16:19;;;;;;;5.03;1.40;;;6.50;99.90;;;;;;10095460;28;20041;-68
2023/11/25 11:21:13;;;;;;;5.25;1.52;;;6.60;99.90;;;;;;10096864;28;20036;-69
2023/11/25 11:26:26;;;;;;;3.40;1.25;;;6.60;99.90;;;;;;10097528;28;20066;-68
2023/11/25 11:31:36;;;;;;;6.68;2.22;;;6.60;99.90;;;;;;10081659;28;20475;-68
2023/11/25 11:36:31;;;;;;;1.98;1.08;;;6.70;99.90;;;;;;10097176;28;20152;-70
2023/11/25 11:41:21;;;;;;;2.58;1.30;;;6.60;99.90;;;;;;10093867;28;20029;-70
2023/11/25 11:46:14;;;;;;;2.55;0.98;;;6.70;99.90;;;;;;10097944;28;20040;-71
2023/11/25 11:51:10;;;;;;;3.92;1.40;;;6.60;99.90;;;;;;10095499;28;20032;-69
2023/11/25 11:56:00;;;;;;;;;;;6.70;99.90;;;;;;10096844;28;20036;-68
2023/11/25 12:01:06;;;;;;;2.88;1.10;;;6.70;99.90;;;;;;10077759;28;20278;-70
2023/11/25 12:05:57;;;;;;;9.05;1.50;;;6.60;99.90;;;;;;10091915;28;20033;-69
2023/11/25 12:10:48;;;;;;;2.97;1.10;;;6.60;99.90;;;;;;10096229;28;20024;-69
2023/11/25 12:15:39;;;;;;;4.20;1.38;;;6.60;99.90;;;;;;10094769;28;20029;-72
2023/11/25 12:20:31;;;;;;;7.00;1.77;;;6.60;99.90;;;;;;10094258;28;20025;-71
2023/11/25 12:25:26;;;;;;;5.43;2.03;;;6.70;99.90;;;;;;10096610;28;20043;-67
2023/11/25 12:30:17;;;;;;;3.67;1.45;;;6.70;99.90;;;;;;10094193;28;20596;-67
2023/11/25 12:35:12;;;;;;;3.22;1.13;;;6.80;99.90;;;;;;10095132;28;20049;-69
2023/11/25 12:40:23;;;;;;;2.03;1.20;;;6.90;99.90;;;;;;10094553;28;20038;-70
2023/11/25 12:45:35;;;;;;;6.90;1.77;;;6.90;99.90;;;;;;10071465;28;20037;-75
2023/11/25 12:50:28;;;;;;;7.20;1.58;;;6.80;99.90;;;;;;10074611;28;20045;-69
2023/11/25 12:55:48;;;;;;;2.90;1.67;;;6.90;99.90;;;;;;10093318;28;20501;-73
2023/11/25 13:00:48;;;;;;;9.70;2.17;;;6.80;99.90;;;;;;10084520;28;20510;-72
2023/11/25 13:05:39;;;;;;;3.55;1.40;;;6.80;99.90;;;;;;10085023;28;20523;-74
2023/11/25 13:10:29;;;;;;;3.08;1.10;;;6.90;99.90;;;;;;10085582;28;20025;-72
2023/11/25 13:15:20;;;;;;;3.70;1.63;;;6.80;99.90;;;;;;10081197;28;20060;-73
2023/11/25 13:20:11;;;;;;;5.50;1.80;;;6.90;99.90;;;;;;10088640;28;20041;-72
2023/11/25 13:25:02;;;;;;;3.92;1.15;;;6.90;99.90;;;;;;10083108;28;20796;-71
2023/11/25 13:29:52;;;;;;;6.35;1.55;;;7.00;99.90;;;;;;10078082;28;20670;-71
2023/11/25 13:34:43;;;;;;;4.75;1.75;;;7.00;99.90;;;;;;10084174;28;20057;-71
2023/11/25 13:39:34;;;;;;;3.80;1.60;;;7.00;99.90;;;;;;10085128;28;20091;-72
2023/11/25 13:44:24;;;;;;;4.57;1.83;;;7.10;99.90;;;;;;10082202;28;20090;-72
2023/11/25 13:49:15;;;;;;;3.08;1.27;;;7.00;99.90;;;;;;10085069;28;20063;-72
2023/11/25 13:54:06;;;;;;;1.30;1.05;;;7.00;99.90;;;;;;10076120;28;20399;-72
2023/11/25 13:58:57;;;;;;;1.50;0.90;;;6.90;99.90;;;;;;10075898;28;20018;-70
2023/11/25 14:03:50;;;;;;;4.40;1.52;;;6.90;99.90;;;;;;10090556;28;20025;-72
2023/11/25 14:08:40;;;;;;;1.60;1.08;;;6.90;99.90;;;;;;10084914;28;20033;-71
2023/11/25 14:13:31;;;;;;;2.92;1.13;;;6.90;99.90;;;;;;10086366;28;20064;-71
2023/11/25 14:18:23;;;;;;;1.90;1.05;;;7.00;99.90;;;;;;10089801;28;20033;-70
2023/11/25 14:23:14;;;;;;;1.40;1.30;;;7.00;99.90;;;;;;10092218;28;20044;-73
2023/11/25 14:28:05;;;;;;;1.95;0.88;;;7.00;99.90;;;;;;10096636;28;20085;-70
2023/11/25 14:32:56;;;;;;;1.65;0.95;;;7.00;99.90;;;;;;10091492;28;20041;-70
2023/11/25 14:37:46;;;;;;;3.30;1.30;;;7.00;99.90;;;;;;10092045;28;20033;-71
2023/11/25 14:42:38;;;;;;;2.35;0.90;;;6.90;99.90;;;;;;10077628;28;20090;-73
2023/11/25 14:47:28;;;;;;;4.57;0.85;;;6.90;99.90;;;;;;10087433;28;20041;-70
2023/11/25 14:52:19;;;;;;;2.75;1.13;;;6.90;99.90;;;;;;10083617;28;20071;-71
2023/11/25 14:57:13;;;;;;;1.75;1.00;;;6.90;99.90;;;;;;10072888;28;20025;-71
2023/11/25 15:02:03;;;;;;;1.33;1.17;;;6.80;99.90;;;;;;10083460;28;20554;-71
2023/11/25 15:06:55;;;;;;;2.15;0.85;;;6.70;99.90;;;;;;10087121;28;20079;-72
2023/11/25 15:11:45;;;;;;;2.40;0.68;;;6.70;99.90;;;;;;10093468;28;20553;-70
2023/11/25 15:16:37;;;;;;;1.83;0.68;;;6.60;99.90;;;;;;10090143;28;20056;-71
2023/11/25 15:21:27;;;;;;;1.40;0.57;;;6.60;99.90;;;;;;10083759;28;20053;-69
2023/11/25 15:26:18;;;;;;;2.30;0.93;;;6.60;99.90;;;;;;10095148;28;20072;-69
2023/11/25 15:31:11;;;;;;;1.27;0.88;;;6.70;99.90;;;;;;10078195;28;20552;-70
2023/11/25 15:36:01;;;;;;;1.13;0.70;;;6.70;99.90;;;;;;10095482;28;20048;-70
2023/11/25 15:40:52;;;;;;;0.68;0.50;;;6.70;99.90;;;;;;10097364;28;20115;-69
2023/11/25 15:45:43;;;;;;;1.73;1.17;;;6.60;99.90;;;;;;10096099;28;20691;-71
2023/11/25 15:50:34;;;;;;;1.83;0.80;;;6.70;99.90;;;;;;10099220;28;20020;-72
2023/11/25 15:55:25;;;;;;;2.08;0.98;;;6.70;99.90;;;;;;10093996;28;20410;-70
2023/11/25 16:00:19;;;;;;;1.35;0.80;;;6.60;99.90;;;;;;10095884;28;20120;-70
2023/11/25 16:05:14;;;;;;;1.83;0.80;;;6.60;99.90;;;;;;10096562;28;20422;-70
2023/11/25 16:10:06;;;;;;;0.52;0.43;;;6.70;99.90;;;;;;10096747;28;20033;-70
2023/11/25 16:14:56;;;;;;;1.05;0.43;;;6.70;99.90;;;;;;10089534;28;20074;-70
2023/11/25 16:19:47;;;;;;;1.27;0.90;;;6.60;99.90;;;;;;10088730;28;20017;-69
2023/11/25 16:24:38;;;;;;;1.23;0.57;;;6.60;99.90;;;;;;10095858;28;20048;-69
2023/11/25 16:29:28;;;;;;;1.02;0.65;;;6.70;99.90;;;;;;10095086;28;20033;-69
2023/11/25 16:34:20;;;;;;;3.10;1.10;;;6.70;99.90;;;;;;10088477;28;20048;-69
2023/11/25 16:39:15;;;;;;;3.72;1.40;;;6.70;99.90;;;;;;10085673;28;20029;-70
2023/11/25 16:44:05;;;;;;;1.40;0.90;;;6.70;99.90;;;;;;10088098;28;20754;-68
2023/11/25 16:48:56;;;;;;;1.55;0.80;;;6.70;99.90;;;;;;10085237;28;20041;-69
2023/11/25 16:53:46;;;;;;;1.55;0.98;;;6.70;99.90;;;;;;10082622;28;20043;-69
2023/11/25 16:58:37;;;;;;;0.90;0.80;;;6.60;99.90;;;;;;10067269;28;20395;-69
2023/11/25 17:03:28;;;;;;;3.67;0.82;;;6.60;99.90;;;;;;10076341;28;20088;-70
2023/11/25 17:08:18;;;;;;;2.67;1.02;;;6.70;99.90;;;;;;10081017;28;20534;-69
2023/11/25 17:13:11;;;;;;;3.03;1.20;;;6.70;99.90;;;;;;10088124;28;20067;-70
2023/11/25 17:18:03;;;;;;;2.67;1.08;;;6.70;99.90;;;;;;10094932;28;20045;-69
2023/11/25 17:22:54;;;;;;;3.33;1.40;;;6.70;99.90;;;;;;10082086;28;20028;-69
2023/11/25 17:27:44;;;;;;;2.55;1.20;;;6.70;99.90;;;;;;10079275;28;20075;-71
2023/11/25 17:32:35;;;;;;;2.55;1.40;;;6.60;99.90;;;;;;10088104;28;20028;-69
2023/11/25 17:37:26;;;;;;;2.22;1.13;;;6.70;99.90;;;;;;10089867;28;20549;-71
2023/11/25 17:42:17;;;;;;;3.60;1.33;;;6.80;99.90;;;;;;10092480;28;20069;-73
2023/11/25 17:47:09;;;;;;;1.92;1.30;;;6.70;99.90;;;;;;10096103;28;20127;-70
2023/11/25 17:51:59;;;;;;;3.10;1.00;;;6.80;99.90;;;;;;10082168;28;20048;-69
2023/11/25 17:56:50;;;;;;;1.42;1.10;;;6.70;99.90;;;;;;10101271;28;20525;-68
2023/11/25 18:01:40;;;;;;;3.58;1.55;;;6.70;99.90;;;;;;10098856;28;20028;-69
2023/11/25 18:06:31;;;;;;;4.03;1.15;;;6.80;99.90;;;;;;10082826;28;20164;-70
2023/11/25 18:11:22;;;;;;;5.68;1.90;;;6.70;99.90;;;;;;10099968;28;20025;-69
2023/11/25 18:16:13;;;;;;;3.70;1.30;;;6.70;99.90;;;;;;10092300;28;20040;-71
2023/11/25 18:21:05;;;;;;;1.98;1.13;;;6.70;99.90;;;;;;10091362;28;20033;-71
2023/11/25 18:25:56;;;;;;;1.70;1.00;;;6.80;99.90;;;;;;10095388;28;20061;-70
2023/11/25 18:30:47;;;;;;;2.95;1.90;;;6.80;99.90;;;;;;10098734;28;20032;-70
2023/11/25 18:35:38;;;;;;;5.45;1.50;;;6.80;99.90;;;;;;10096802;28;20064;-70
2023/11/25 18:40:29;;;;;;;2.10;1.30;;;6.80;99.90;;;;;;10095984;28;20036;-70
2023/11/25 18:45:20;;;;;;;3.22;1.52;;;6.70;99.90;;;;;;10098313;28;20029;-70
2023/11/25 18:50:15;;;;;;;3.60;1.52;;;6.70;99.90;;;;;;10095454;28;20055;-70
2023/11/25 18:55:07;;;;;;;2.50;1.45;;;6.70;99.90;;;;;;10095277;28;20025;-70
2023/11/25 18:59:57;;;;;;;7.85;1.90;;;6.80;99.90;;;;;;10076893;28;20061;-72
2023/11/25 19:04:48;;;;;;;4.38;1.90;;;6.80;99.90;;;;;;10077365;28;20084;-70
2023/11/25 19:09:39;;;;;;;2.92;1.58;;;6.80;99.90;;;;;;10089599;28;20038;-72
2023/11/25 19:14:30;;;;;;;2.97;1.30;;;6.80;99.90;;;;;;10079552;28;20040;-69
2023/11/25 19:19:21;;;;;;;2.88;1.38;;;6.80;99.90;;;;;;10082984;28;20028;-70
2023/11/25 19:24:12;;;;;;;2.70;1.38;;;6.80;99.90;;;;;;10070477;28;20029;-74
2023/11/25 19:29:03;;;;;;;3.78;1.75;;;6.80;99.90;;;;;;10071795;28;20044;-71
2023/11/25 19:33:53;;;;;;;2.15;1.48;;;6.70;99.90;;;;;;10087876;28;20072;-71
2023/11/25 19:38:45;;;;;;;6.95;1.70;;;6.80;99.90;;;;;;10083915;28;20029;-74
2023/11/25 19:43:36;;;;;;;2.95;1.48;;;6.80;99.90;;;;;;10069906;28;20748;-72
2023/11/25 19:48:27;;;;;;;2.58;2.22;;;6.80;99.90;;;;;;10066200;28;20041;-70
2023/11/25 19:53:18;;;;;;;2.45;1.67;;;6.80;99.90;;;;;;10087625;28;20036;-72
2023/11/25 19:58:11;;;;;;;3.60;1.42;;;6.70;99.90;;;;;;10073326;28;20044;-73
2023/11/25 20:03:02;;;;;;;2.92;1.38;;;6.80;99.90;;;;;;10096552;28;20021;-74
2023/11/25 20:07:53;;;;;;;1.92;1.20;;;6.70;99.90;;;;;;10095519;28;20041;-70
2023/11/25 20:12:47;;;;;;;4.25;2.03;;;6.80;99.90;;;;;;10095809;28;20043;-73
2023/11/25 20:17:39;;;;;;;2.08;1.27;;;6.70;99.90;;;;;;10095197;28;20029;-73
2023/11/25 20:22:29;;;;;;;3.05;1.60;;;6.80;99.90;;;;;;10096448;28;20029;-72
2023/11/25 20:27:20;;;;;;;2.33;1.40;;;6.80;99.90;;;;;;10097185;28;20045;-73
2023/11/25 20:32:12;;;;;;;3.35;1.30;;;6.80;99.90;;;;;;10098427;28;20517;-71
2023/11/25 20:37:03;;;;;;;5.38;1.73;;;6.80;99.90;;;;;;10093547;28;20689;-73
2023/11/25 20:41:54;;;;;;;2.60;1.17;;;6.80;99.90;;;;;;10092203;28;20028;-70
2023/11/25 20:46:45;;;;;;;2.30;1.30;;;6.80;99.90;;;;;;10091452;28;20075;-69
2023/11/25 20:51:36;;;;;;;1.80;1.30;;;6.80;99.90;;;;;;10095570;28;20021;-71
2023/11/25 20:56:26;;;;;;;2.38;1.30;;;6.80;99.90;;;;;;10095343;28;20041;-69
2023/11/25 21:01:17;;;;;;;4.32;1.20;;;6.70;99.90;;;;;;10094656;28;20029;-68
2023/11/25 21:06:07;;;;;;;6.25;2.10;;;6.70;99.90;;;;;;10094804;28;20041;-68
2023/11/25 21:10:58;;;;;;;2.50;1.50;;;6.70;99.90;;;;;;10091870;28;20025;-69
2023/11/25 21:15:49;;;;;;;2.83;1.60;;;6.70;99.90;;;;;;10090124;28;20033;-69
2023/11/25 21:20:40;;;;;;;2.65;1.17;;;6.70;99.90;;;;;;10094946;28;20387;-71
2023/11/25 21:25:34;;;;;;;5.95;1.75;;;6.70;99.90;;;;;;10099190;28;20087;-68
2023/11/25 21:30:26;;;;;;;3.58;1.58;;;6.70;99.90;;;;;;10099790;28;20094;-70
2023/11/25 21:35:18;;;;;;;3.83;1.55;;;6.70;99.90;;;;;;10101316;28;20524;-69
2023/11/25 21:40:10;;;;;;;3.08;1.40;;;6.60;99.90;;;;;;10097961;28;20036;-68
2023/11/25 21:45:05;;;;;;;6.82;2.10;;;6.70;99.90;;;;;;10083927;28;20068;-69
2023/11/25 21:49:56;;;;;;;1.80;1.42;;;6.70;99.90;;;;;;10083000;28;20036;-70
2023/11/25 21:54:46;;;;;;;2.55;1.30;;;6.60;99.90;;;;;;10099019;28;20051;-69
2023/11/25 21:59:38;;;;;;;2.65;1.25;;;6.60;99.90;;;;;;10100319;28;20110;-69
2023/11/25 22:04:29;;;;;;;1.80;1.23;;;6.60;99.90;;;;;;10101051;28;20395;-68
2023/11/25 22:09:21;;;;;;;4.38;1.50;;;6.60;99.90;;;;;;10100538;28;20096;-69
2023/11/25 22:14:11;;;;;;;6.15;1.77;;;6.60;99.90;;;;;;10094102;28;20035;-72
2023/11/25 22:19:02;;;;;;;3.85;1.70;;;6.60;99.90;;;;;;10098387;28;20802;-70
2023/11/25 22:23:54;;;;;;;1.23;1.13;;;6.60;99.90;;;;;;10084996;28;20081;-69
2023/11/25 22:28:45;;;;;;;2.50;1.40;;;6.60;99.90;;;;;;10100465;28;20534;-68
2023/11/25 22:33:35;;;;;;;5.75;1.85;;;6.60;99.90;;;;;;10098932;28;20114;-68
2023/11/25 22:38:27;;;;;;;1.15;0.93;;;6.60;99.90;;;;;;10102345;28;20045;-69
2023/11/25 22:43:17;;;;;;;2.17;1.08;;;6.60;99.90;;;;;;10098245;28;20116;-69
2023/11/25 22:48:11;;;;;;;3.30;1.65;;;6.60;99.90;;;;;;10097026;28;20119;-70
2023/11/25 22:53:02;;;;;;;1.60;1.02;;;6.60;99.90;;;;;;10102421;28;20081;-68
2023/11/25 22:57:59;;;;;;;3.05;1.25;;;6.60;99.90;;;;;;10099017;28;20060;-70
2023/11/25 23:02:49;;;;;;;2.95;1.88;;;6.50;99.90;;;;;;10080767;28;20032;-70
2023/11/25 23:07:40;;;;;;;1.45;0.85;;;6.50;99.90;;;;;;10098755;28;20495;-71
2023/11/25 23:12:31;;;;;;;2.25;1.40;;;6.50;99.90;;;;;;10080946;28;20059;-70
2023/11/25 23:17:21;;;;;;;2.95;1.13;;;6.60;99.90;;;;;;10097808;28;20056;-70
2023/11/25 23:22:12;;;;;;;4.00;2.03;;;6.60;99.90;;;;;;10098337;28;20037;-69
2023/11/25 23:27:08;;;;;;;2.40;1.75;;;6.60;99.90;;;;;;10099478;28;20084;-69
2023/11/25 23:32:00;;;;;;;1.65;0.90;;;6.60;99.90;;;;;;10098226;28;20507;-69
2023/11/25 23:36:51;;;;;;;2.72;1.08;;;6.50;99.90;;;;;;10104667;28;20048;-70
2023/11/25 23:41:49;;;;;;;4.10;1.00;;;6.60;99.90;;;;;;10097298;28;20375;-71
2023/11/25 23:46:40;;;;;;;3.90;1.40;;;6.50;99.90;;;;;;10098007;28;20429;-69
2023/11/25 23:51:31;;;;;;;4.07;1.38;;;6.60;99.90;;;;;;10079155;28;20041;-71
2023/11/25 23:56:25;;;;;;;1.90;1.52;;;6.70;99.90;;;;;;10128187;22;20455;-73
